createdAt,value
2023-09-02T00:02:19.092Z,9.60
2023-09-02T00:10:27.024Z,7.75
2023-09-02T00:18:32.851Z,5.65
2023-09-02T00:26:40.880Z,8.15
2023-09-02T00:34:46.954Z,6.10
2023-09-02T00:42:56.174Z,6.57
2023-09-02T00:51:03.808Z,7.88
2023-09-02T00:59:11.952Z,6.25
2023-09-02T01:07:17.769Z,9.27
2023-09-02T01:15:26.041Z,8.82
2023-09-02T01:23:57.129Z,6.53
2023-09-02T01:32:05.783Z,6.50
2023-09-02T01:40:15.266Z,7.60
2023-09-02T01:48:24.993Z,8.45
2023-09-02T01:56:31.602Z,6.30
2023-09-02T02:04:46.231Z,6.63
2023-09-02T02:12:54.582Z,7.30
2023-09-02T02:21:04.769Z,6.78
2023-09-02T02:29:12.714Z,6.70
2023-09-02T02:37:18.136Z,6.15
2023-09-02T02:45:26.226Z,7.05
2023-09-02T02:53:31.496Z,9.50
2023-09-02T03:01:43.714Z,6.43
2023-09-02T03:09:49.753Z,11.00
2023-09-02T03:17:58.025Z,6.53
2023-09-02T03:26:12.818Z,9.43
2023-09-02T03:34:23.574Z,9.20
2023-09-02T03:42:28.941Z,8.32
2023-09-02T03:50:37.040Z,5.68
2023-09-02T03:58:43.088Z,6.13
2023-09-02T04:06:51.718Z,6.63
2023-09-02T04:14:57.211Z,6.70
2023-09-02T04:23:05.292Z,4.38
2023-09-02T04:31:10.908Z,4.78
2023-09-02T04:39:18.861Z,8.75
2023-09-02T04:47:26.116Z,5.95
2023-09-02T04:55:35.093Z,5.50
2023-09-02T05:03:41.649Z,5.20
2023-09-02T05:11:49.712Z,8.98
2023-09-02T05:19:55.211Z,5.82
2023-09-02T05:28:03.210Z,4.47
2023-09-02T05:36:09.034Z,5.63
2023-09-02T05:44:17.163Z,6.72
2023-09-02T05:52:22.636Z,4.95
2023-09-02T06:00:30.633Z,4.07
2023-09-02T06:08:36.555Z,5.43
2023-09-02T06:16:44.408Z,4.00
2023-09-02T06:24:49.735Z,5.15
2023-09-02T06:32:58.039Z,4.45
2023-09-02T06:41:03.438Z,3.72
2023-09-02T06:49:11.785Z,4.57
2023-09-02T06:57:17.126Z,5.25
2023-09-02T07:05:25.133Z,5.10
2023-09-02T07:13:30.672Z,6.28
2023-09-02T07:21:38.590Z,4.07
2023-09-02T07:29:43.984Z,4.32
2023-09-02T07:37:52.025Z,5.43
2023-09-02T07:46:00.083Z,6.07
2023-09-02T07:54:08.262Z,6.65
2023-09-02T08:02:13.627Z,5.13
2023-09-02T08:10:21.840Z,6.32
2023-09-02T08:18:27.288Z,9.65
2023-09-02T08:26:35.315Z,5.28
2023-09-02T08:34:40.625Z,8.65
2023-09-02T08:42:50.854Z,6.22
2023-09-02T08:50:57.893Z,5.50
2023-09-02T08:59:05.879Z,7.68
2023-09-02T09:07:13.864Z,3.85
2023-09-02T09:15:22.973Z,3.45
2023-09-02T09:23:28.233Z,3.92
2023-09-02T09:31:36.089Z,4.80
2023-09-02T09:39:45.940Z,6.13
2023-09-02T09:47:54.028Z,4.00
2023-09-02T10:05:18.613Z,2.50
2023-09-02T10:14:00.569Z,5.40
2023-09-02T10:22:22.711Z,3.80
2023-09-02T10:30:36.036Z,2.95
2023-09-02T10:38:51.509Z,3.72
2023-09-02T12:22:29.789Z,2.33
2023-09-02T12:30:35.226Z,2.83
2023-09-02T12:38:56.051Z,2.28
2023-09-02T12:47:01.402Z,1.98
2023-09-02T12:55:14.957Z,3.45
2023-09-02T13:03:20.573Z,3.95
2023-09-02T13:11:30.535Z,4.57
2023-09-02T13:19:36.572Z,3.78
2023-09-02T13:27:44.842Z,3.47
2023-09-02T13:35:50.254Z,2.65
2023-09-02T13:43:58.205Z,3.70
2023-09-02T13:52:03.880Z,2.30
2023-09-02T14:00:25.165Z,5.13
2023-09-02T14:08:39.094Z,4.47
2023-09-02T14:16:47.137Z,3.80
2023-09-02T14:24:53.995Z,3.50
2023-09-02T14:33:02.027Z,4.00
2023-09-02T14:41:07.411Z,3.50
2023-09-02T14:49:16.288Z,4.30
2023-09-02T14:57:22.130Z,3.25
2023-09-02T15:05:31.595Z,4.10
2023-09-02T15:13:40.543Z,2.92
2023-09-02T15:21:48.456Z,5.28
2023-09-02T15:29:54.464Z,6.18
2023-09-02T15:38:04.342Z,5.85
2023-09-02T15:46:10.392Z,4.25
2023-09-02T15:54:18.484Z,5.88
2023-09-02T16:02:23.939Z,3.65
2023-09-02T16:10:34.137Z,4.78
2023-09-02T16:18:39.551Z,4.47
2023-09-02T16:26:47.620Z,4.65
2023-09-02T16:34:53.121Z,6.45
2023-09-02T16:43:02.517Z,10.18
2023-09-02T16:51:08.012Z,8.02
2023-09-02T16:59:16.527Z,9.07
2023-09-02T17:07:21.968Z,6.72
2023-09-02T17:15:38.469Z,11.95
2023-09-02T17:23:47.874Z,9.80
2023-09-02T17:31:58.397Z,10.30
2023-09-02T17:40:04.237Z,15.98
2023-09-02T17:48:14.325Z,9.68
2023-09-02T17:56:19.851Z,10.15
2023-09-02T18:04:27.876Z,12.38
2023-09-02T18:12:33.207Z,11.38
2023-09-02T18:20:41.189Z,8.23
2023-09-02T18:28:46.868Z,9.35
2023-09-02T18:36:54.900Z,13.48
2023-09-02T18:45:00.369Z,14.95
2023-09-02T18:53:08.414Z,13.43
2023-09-02T19:01:14.126Z,16.15
2023-09-02T19:09:22.116Z,15.05
2023-09-02T19:17:27.771Z,11.57
2023-09-02T19:25:40.439Z,8.18
2023-09-02T19:33:46.252Z,7.57
2023-09-02T19:41:56.623Z,7.25
2023-09-02T19:50:01.993Z,10.77
2023-09-02T19:58:10.185Z,16.35
2023-09-02T20:06:16.615Z,10.35
2023-09-02T20:14:24.540Z,13.68
2023-09-02T20:22:29.955Z,14.05
2023-09-02T20:30:41.128Z,15.52
2023-09-02T20:38:47.022Z,12.60
2023-09-02T20:46:55.105Z,10.85
2023-09-02T20:55:01.053Z,14.38
2023-09-02T21:03:09.289Z,9.85
2023-09-02T21:11:15.900Z,7.93
2023-09-02T21:19:23.840Z,9.00
2023-09-02T21:27:29.054Z,15.18
2023-09-02T21:35:40.994Z,11.38
2023-09-02T21:43:46.984Z,10.17
2023-09-02T21:51:54.996Z,11.30
2023-09-02T22:00:00.507Z,8.52
2023-09-02T22:08:09.793Z,8.63
2023-09-02T22:16:15.252Z,9.38
2023-09-02T22:24:23.213Z,7.85
2023-09-02T22:32:28.575Z,9.75
2023-09-02T22:40:36.869Z,7.25
2023-09-02T22:48:42.256Z,12.68
2023-09-02T22:56:51.054Z,7.13
2023-09-02T23:04:56.481Z,9.50
2023-09-02T23:13:04.963Z,7.35
2023-09-02T23:21:14.519Z,10.73
2023-09-02T23:29:22.609Z,9.80
2023-09-02T23:37:27.966Z,13.00
2023-09-02T23:45:38.616Z,8.10
2023-09-02T23:53:43.864Z,9.10
